Time,TemperatureF,DewpointF,PressureIn,WindDirection,WindDirectionDegrees,WindSpeedMPH,WindSpeedGustMPH,Humidity,HourlyPrecipIn,Conditions,Clouds,dailyrainin,SolarRadiationWatts/m^2,SoftwareType,DateUTC
2016-07-30 00:00:00,74.9,52.8,-100.00,NNE,28,2.9,5.1,46,0.00,,,-99.99,1.0,HOBO +U30 +Weather +,2016-07-30 06:00:00,
2016-07-30 00:15:00,74.2,52.7,-100.00,NNE,32,2.9,5.1,47,0.00,,,-99.99,1.0,HOBO +U30 +Weather +,2016-07-30 06:15:00,
2016-07-30 00:30:00,73.2,53.2,-100.00,NE,35,1.1,2.9,49,0.00,,,-99.99,1.0,HOBO +U30 +Weather +,2016-07-30 06:30:00,
2016-07-30 00:45:00,72.5,53.2,-100.00,NE,41,1.8,4.0,50,0.00,,,-99.99,1.0,HOBO +U30 +Weather +,2016-07-30 06:45:00,
2016-07-30 01:00:00,72.5,52.9,-100.00,North,6,1.1,4.5,50,0.00,,,-99.99,1.0,HOBO +U30 +Weather +,2016-07-30 07:00:00,
2016-07-30 01:15:00,72.1,53.3,-100.00,North,7,0.7,3.4,51,0.00,,,-99.99,1.0,HOBO +U30 +Weather +,2016-07-30 07:15:00,
2016-07-30 01:30:00,71.7,52.9,-100.00,NNE,29,1.8,4.5,51,0.00,,,-99.99,1.0,HOBO +U30 +Weather +,2016-07-30 07:30:00,
2016-07-30 01:45:00,71.4,51.8,-100.00,NNE,18,2.2,5.1,49,0.00,,,-99.99,1.0,HOBO +U30 +Weather +,2016-07-30 07:45:00,
2016-07-30 02:00:00,70.4,52.6,-100.00,NNE,24,2.9,5.1,53,0.00,,,-99.99,1.0,HOBO +U30 +Weather +,2016-07-30 08:00:00,
2016-07-30 02:15:00,69.6,52.4,-100.00,NE,34,4.0,6.7,54,0.00,,,-99.99,1.0,HOBO +U30 +Weather +,2016-07-30 08:15:00,
2016-07-30 02:30:00,69.0,52.4,-100.00,NE,38,5.1,7.4,55,0.00,,,-99.99,1.0,HOBO +U30 +Weather +,2016-07-30 08:30:00,
2016-07-30 02:45:00,68.1,53.2,-100.00,NE,39,4.5,7.4,58,0.00,,,-99.99,1.0,HOBO +U30 +Weather +,2016-07-30 08:45:00,
2016-07-30 03:00:00,67.9,53.7,-100.00,NE,44,5.1,8.5,60,0.00,,,-99.99,1.0,HOBO +U30 +Weather +,2016-07-30 09:00:00,
2016-07-30 03:15:00,67.2,53.3,-100.00,NE,41,5.6,7.8,61,0.00,,,-99.99,1.0,HOBO +U30 +Weather +,2016-07-30 09:15:00,
2016-07-30 03:30:00,66.6,53.7,-100.00,NE,46,5.6,8.9,63,0.00,,,-99.99,1.0,HOBO +U30 +Weather +,2016-07-30 09:30:00,
2016-07-30 03:45:00,66.1,53.8,-100.00,ENE,74,4.5,10.1,64,0.00,,,-99.99,1.0,HOBO +U30 +Weather +,2016-07-30 09:45:00,
2016-07-30 04:00:00,66.9,53.4,-100.00,ENE,65,3.4,5.6,61,0.00,,,-99.99,1.0,HOBO +U30 +Weather +,2016-07-30 10:00:00,
2016-07-30 04:15:00,66.7,53.3,-100.00,NE,38,2.2,4.5,62,0.00,,,-99.99,1.0,HOBO +U30 +Weather +,2016-07-30 10:15:00,
2016-07-30 04:30:00,66.8,53.2,-100.00,NE,49,3.4,5.6,61,0.00,,,-99.99,1.0,HOBO +U30 +Weather +,2016-07-30 10:30:00,
2016-07-30 04:45:00,66.4,53.4,-100.00,NNE,21,3.4,6.3,62,0.00,,,-99.99,1.0,HOBO +U30 +Weather +,2016-07-30 10:45:00,
2016-07-30 05:00:00,66.2,53.9,-100.00,WSW,248,1.8,5.6,64,0.00,,,-99.99,1.0,HOBO +U30 +Weather +,2016-07-30 11:00:00,
2016-07-30 05:15:00,65.2,54.4,-100.00,WSW,251,4.5,7.8,68,0.00,,,-99.99,1.0,HOBO +U30 +Weather +,2016-07-30 11:15:00,
2016-07-30 05:30:00,64.9,54.2,-100.00,West,260,2.9,7.4,68,0.00,,,-99.99,1.0,HOBO +U30 +Weather +,2016-07-30 11:30:00,
2016-07-30 05:45:00,65.0,54.1,-100.00,SW,229,2.2,5.6,67,0.00,,,-99.99,2.0,HOBO +U30 +Weather +,2016-07-30 11:45:00,
2016-07-30 06:00:00,63.6,54.8,-100.00,SSE,168,3.4,5.6,72,0.00,,,-99.99,16.0,HOBO +U30 +Weather +,2016-07-30 12:00:00,
2016-07-30 06:15:00,64.0,55.2,-100.00,SSE,153,3.4,7.4,72,0.00,,,-99.99,29.0,HOBO +U30 +Weather +,2016-07-30 12:15:00,
2016-07-30 06:45:00,64.0,55.1,-100.00,South,175,2.2,5.6,72,0.00,,,-99.99,26.0,HOBO +U30 +Weather +,2016-07-30 12:45:00,
2016-07-30 07:00:00,64.8,55.5,-100.00,South,190,0.7,5.1,71,0.00,,,-99.99,66.0,HOBO +U30 +Weather +,2016-07-30 13:00:00,
2016-07-30 07:15:00,66.1,55.9,-100.00,South,188,1.8,4.5,69,0.00,,,-99.99,164.0,HOBO +U30 +Weather +,2016-07-30 13:15:00,
2016-07-30 07:30:00,67.6,56.3,-100.00,South,181,1.8,4.5,66,0.00,,,-99.99,288.0,HOBO +U30 +Weather +,2016-07-30 13:30:00,
2016-07-30 07:45:00,67.4,55.3,-100.00,SSW,202,1.1,5.1,65,0.00,,,-99.99,114.0,HOBO +U30 +Weather +,2016-07-30 13:45:00,
2016-07-30 08:00:00,67.3,55.6,-100.00,South,174,3.4,10.1,66,0.00,,,-99.99,133.0,HOBO +U30 +Weather +,2016-07-30 14:00:00,
2016-07-30 08:15:00,66.9,55.9,-100.00,ESE,107,4.0,7.4,67,0.00,,,-99.99,78.0,HOBO +U30 +Weather +,2016-07-30 14:15:00,
2016-07-30 08:30:00,68.3,57.1,-100.00,South,190,2.2,5.6,67,0.00,,,-99.99,308.0,HOBO +U30 +Weather +,2016-07-30 14:30:00,
2016-07-30 08:45:00,71.7,57.5,-100.00,SW,230,1.1,4.5,60,0.00,,,-99.99,382.0,HOBO +U30 +Weather +,2016-07-30 14:45:00,
2016-07-30 09:00:00,73.6,57.4,-100.00,SSE,157,0.7,2.9,56,0.00,,,-99.99,418.0,HOBO +U30 +Weather +,2016-07-30 15:00:00,
2016-07-30 09:15:00,74.2,57.0,-100.00,ESE,105,1.1,4.0,55,0.00,,,-99.99,453.0,HOBO +U30 +Weather +,2016-07-30 15:15:00,
2016-07-30 09:30:00,77.0,57.6,-100.00,NNE,32,0.7,3.4,51,0.00,,,-99.99,489.0,HOBO +U30 +Weather +,2016-07-30 15:30:00,
2016-07-30 09:45:00,76.9,57.1,-100.00,ENE,72,1.1,4.5,50,0.00,,,-99.99,523.0,HOBO +U30 +Weather +,2016-07-30 15:45:00,
2016-07-30 10:00:00,78.1,56.7,-100.00,North,355,2.2,6.3,47,0.00,,,-99.99,557.0,HOBO +U30 +Weather +,2016-07-30 16:00:00,
2016-07-30 10:15:00,80.0,56.6,-100.00,NNE,20,2.2,5.6,44,0.00,,,-99.99,586.0,HOBO +U30 +Weather +,2016-07-30 16:15:00,
2016-07-30 10:30:00,78.9,56.2,-100.00,North,4,3.4,9.6,45,0.00,,,-99.99,613.0,HOBO +U30 +Weather +,2016-07-30 16:30:00,
2016-07-30 10:45:00,82.0,57.0,-100.00,North,351,2.9,8.9,42,0.00,,,-99.99,643.0,HOBO +U30 +Weather +,2016-07-30 16:45:00,
2016-07-30 11:00:00,84.2,56.8,-100.00,NW,316,1.8,6.3,39,0.00,,,-99.99,667.0,HOBO +U30 +Weather +,2016-07-30 17:00:00,
2016-07-30 11:15:00,87.2,56.7,-100.00,North,8,1.1,6.7,35,0.00,,,-99.99,693.0,HOBO +U30 +Weather +,2016-07-30 17:15:00,
2016-07-30 11:30:00,84.1,55.7,-100.00,NE,51,4.5,11.2,37,0.00,,,-99.99,714.0,HOBO +U30 +Weather +,2016-07-30 17:30:00,
2016-07-30 11:45:00,87.6,55.5,-100.00,NNE,20,4.5,9.6,33,0.00,,,-99.99,734.0,HOBO +U30 +Weather +,2016-07-30 17:45:00,
2016-07-30 12:00:00,87.4,55.4,-100.00,NNE,31,3.4,8.5,33,0.00,,,-99.99,751.0,HOBO +U30 +Weather +,2016-07-30 18:00:00,
2016-07-30 12:15:00,88.4,54.7,-100.00,NE,45,3.4,11.2,31,0.00,,,-99.99,766.0,HOBO +U30 +Weather +,2016-07-30 18:15:00,
2016-07-30 12:30:00,89.6,54.9,-100.00,NNW,343,2.2,5.6,30,0.00,,,-99.99,779.0,HOBO +U30 +Weather +,2016-07-30 18:30:00,
2016-07-30 12:45:00,90.7,54.1,-100.00,West,279,1.8,6.7,29,0.00,,,-99.99,792.0,HOBO +U30 +Weather +,2016-07-30 18:45:00,
2016-07-30 13:00:00,90.2,53.5,-100.00,WNW,282,2.2,6.3,28,0.00,,,-99.99,798.0,HOBO +U30 +Weather +,2016-07-30 19:00:00,
2016-07-30 13:15:00,91.9,53.0,-100.00,West,277,2.2,6.7,26,0.00,,,-99.99,806.0,HOBO +U30 +Weather +,2016-07-30 19:15:00,
2016-07-30 13:30:00,91.9,53.7,-100.00,SSW,194,2.2,7.8,27,0.00,,,-99.99,804.0,HOBO +U30 +Weather +,2016-07-30 19:30:00,
2016-07-30 13:45:00,93.8,53.6,-100.00,SW,234,3.4,10.1,25,0.00,,,-99.99,808.0,HOBO +U30 +Weather +,2016-07-30 19:45:00,
2016-07-30 14:00:00,94.3,53.9,-100.00,WSW,251,3.4,8.9,25,0.00,,,-99.99,803.0,HOBO +U30 +Weather +,2016-07-30 20:00:00,
2016-07-30 14:15:00,94.3,53.0,-100.00,WSW,237,2.9,6.3,24,0.00,,,-99.99,793.0,HOBO +U30 +Weather +,2016-07-30 20:15:00,
2016-07-30 14:30:00,94.6,50.9,-100.00,South,183,5.1,11.2,22,0.00,,,-99.99,786.0,HOBO +U30 +Weather +,2016-07-30 20:30:00,
2016-07-30 14:45:00,93.5,49.7,-100.00,South,190,6.7,14.1,22,0.00,,,-99.99,769.0,HOBO +U30 +Weather +,2016-07-30 20:45:00,
2016-07-30 15:00:00,95.8,50.0,-100.00,SSE,153,4.0,14.1,21,0.00,,,-99.99,746.0,HOBO +U30 +Weather +,2016-07-30 21:00:00,
2016-07-30 15:15:00,94.3,49.8,-100.00,SSW,201,6.3,13.4,22,0.00,,,-99.99,733.0,HOBO +U30 +Weather +,2016-07-30 21:15:00,
2016-07-30 15:30:00,95.7,47.2,-100.00,SSW,197,5.6,13.0,19,0.00,,,-99.99,712.0,HOBO +U30 +Weather +,2016-07-30 21:30:00,